Flight Track Log - Related Links

Times and Time Zones

All times are in EDT time to prevent confusion due to time zone crossing. See the UAL4583 flight status page for this flight to view local times or setup timezone preferences in your user account.

Time Position Orientation Groundspeed Altitude Reporting Facility
EDT Latitude Longitude Course Direction KTS MPH feet Rate Location/Type
Thu 11:08:12 AM 43.6753 -70.2211 264° West 172 198 3,100  Level Boston Center
Thu 11:09:12 AM 43.7339 -70.2333 351° North 191 220 5,400 2,000 Climbing Boston Center
Thu 11:10:00 AM 43.7466 -70.4374 263° West  Level FlightAware Approximate
Thu 11:10:12 AM 43.7539 -70.3072 291° West 205 236 7,100  Level Boston Center
Thu 11:11:00 AM 43.7365 -70.5482 263° West  Level FlightAware Approximate
Thu 11:11:12 AM 43.7622 -70.4192 276° West 255 293 9,600  Level Boston Center
Thu 11:12:00 AM 43.7275 -70.6593 264° West  Level FlightAware Approximate
Thu 11:12:12 AM 43.7536 -70.5228 263° West 273 314 11,600  Level Boston Center
Thu 11:13:00 AM 43.7190 -70.7704 264° West  Level FlightAware Approximate
Thu 11:13:12 AM 43.7428 -70.6294 262° West 284 327 13,300  Level Boston Center
Thu 11:14:12 AM 43.7300 -70.7450 261° West 300 345 14,700 1,450 Climbing Boston Center
Thu 11:15:12 AM 43.7067 -70.8606 254° West 305 351 16,200 1,450 Climbing Boston Center
Thu 11:16:12 AM 43.6769 -70.9733 250° West 310 357 17,600 1,450 Climbing Boston Center
Thu 11:17:12 AM 43.6489 -71.0831 251° West 315 362 19,100 1,550 Climbing Boston Center
Thu 11:18:12 AM 43.6253 -71.2011 255° West 309 356 20,700 1,450 Climbing Boston Center
Thu 11:19:12 AM 43.6036 -71.3219 256° West 315 362 22,000 650 Climbing Boston Center
Thu 11:20:12 AM 43.5819 -71.4483 257° West 326 375 22,000  Level Boston Center
Thu 11:21:12 AM 43.5558 -71.5836 255° West 350 403 22,000  Level Boston Center
Thu 11:22:12 AM 43.5358 -71.6983 257° West 366 421 22,000  Level Boston Center
Thu 11:23:12 AM 43.5036 -71.8733 256° West 384 442 22,000  Level Boston Center
Thu 11:24:24 AM 43.4708 -72.0481 256° West 395 455 22,000  Level Boston Center
Thu 11:25:24 AM 43.4422 -72.2000 256° West 400 460 22,000  Level Boston Center
Thu 11:26:24 AM 43.4133 -72.3514 255° West 400 460 22,000  Level Boston Center
Thu 11:27:24 AM 43.3800 -72.5000 253° West 406 467 22,000  Level Boston Center
Thu 11:28:24 AM 43.3214 -72.6369 240° Southwest 411 473 22,000  Level Boston Center
Thu 11:29:24 AM 43.2586 -72.7708 237° Southwest 417 480 22,000  Level Boston Center
Thu 11:30:24 AM 43.1978 -72.9072 239° Southwest 423 487 22,000  Level Boston Center
Thu 11:31:24 AM 43.1344 -73.0433 238° Southwest 428 493 22,000  Level Boston Center
Thu 11:32:24 AM 43.0733 -73.1761 238° Southwest 428 493 22,000  Level Boston Center
Thu 11:33:24 AM 43.0161 -73.3006 238° Southwest 428 493 22,000 -250 Level Boston Center
Thu 11:34:24 AM 42.9483 -73.4300 234° Southwest 428 493 21,500 -1,050 Descending Boston Center
Thu 11:35:24 AM 42.8783 -73.5564 233° Southwest 428 493 19,900 -1,600 Descending Boston Center
Thu 11:36:24 AM 42.8211 -73.6658 235° Southwest 411 473 18,300 -1,900 Descending Boston Center
Thu 11:37:24 AM 42.7486 -73.7972 233° Southwest 405 466 16,100 -1,150 Descending Boston Center
Thu 11:38:24 AM 42.6500 -73.8514 202° Southwest 378 435 16,000 -50 Descending Boston Center
Thu 11:39:24 AM 42.5475 -73.8942 197° South 378 435 16,000  Level Boston Center
Thu 11:40:24 AM 42.4342 -73.9422 197° South 389 448 16,000  Level Boston Center
Thu 11:41:24 AM 42.3419 -73.9850 199° South 389 448 16,000  Level Boston Center
Thu 11:42:24 AM 42.2308 -74.0328 198° South 389 448 16,000  Level Boston Center
Thu 11:43:24 AM 42.1386 -74.0753 199° South 389 448 16,000 -450 Level Boston Center
Thu 11:44:24 AM 42.0358 -74.1200 198° South 389 448 15,100 -1,100 Descending Boston Center
Thu 11:45:24 AM 41.9267 -74.1672 198° South 384 442 13,800 -1,300 Descending Boston Center
Thu 11:46:24 AM 41.8342 -74.2094 199° South 389 448 12,500 -1,450 Descending Boston Center
Thu 11:47:24 AM 41.7231 -74.2564 198° South 389 448 10,900 -1,250 Descending Boston Center
Thu 11:48:24 AM 41.6350 -74.2928 197° South 383 441 10,000 -700 Descending Boston Center
Thu 11:49:24 AM 41.5447 -74.3344 199° South 350 403 9,500 -916 Descending Boston Center
Thu 11:51:34 AM 41.3833 -74.4000 197° South 274 315 7,100 -884 Descending New York TRACON
Thu 11:52:34 AM 41.3167 -74.3667 159° South 275 316 6,700 -500 Descending New York TRACON
Thu 11:53:34 AM 41.2500 -74.3333 159° South 263 303 6,100 -700 Descending New York TRACON
Thu 11:54:34 AM 41.1833 -74.2833 151° Southeast 269 310 5,300 -500 Descending New York TRACON
Thu 11:55:34 AM 41.1167 -74.2333 151° Southeast 268 308 5,100 -200 Descending New York TRACON
Thu 11:56:34 AM 41.0500 -74.2000 159° South 272 313 4,900 -500 Descending New York TRACON
Thu 11:57:34 AM 40.9833 -74.1500 150° Southeast 264 304 4,100 -700 Descending New York TRACON
Thu 11:58:34 AM 40.9167 -74.1000 150° Southeast 254 292 3,500 -700 Descending New York TRACON
Thu 11:59:34 AM 40.8500 -74.1000 180° South 240 276 2,700 -750 Descending New York TRACON
Thu 12:00:34 PM 40.7833 -74.1000 180° South 216 249 2,000 -800 Descending New York TRACON
Thu 12:01:34 PM 40.7500 -74.1333 217° Southwest 178 205 1,100 -900 Descending New York TRACON

Login

Don't have an account? Register now (free) for customized features, flight alerts, and more!